ADDS METAR Data

Data at: 0721 UTC 16 Jan 2018

METAR for:KISP (Islip/Macarthur Arpt, NY, US)
Text:KISP 160711Z AUTO 00000KT 10SM OVC010 M04/M06 A3049 RMK AO2 T10441061
Temperature: -4.4°C ( 24°F)
Dewpoint: -6.1°C ( 21°F) [RH = 88%]
Pressure (altimeter):30.49 inches Hg (1032.6 mb)
Winds:calm
Visibility:10 or more sm (16+ km)
Ceiling:1000 feet AGL
Clouds: overcast cloud deck at 1000 feet AGL
QC Flag:automated observation with no human augmentation